createdAt,value
2022-09-12T00:00:17.263Z,97.72
2022-09-12T00:01:17.268Z,97.62
2022-09-12T00:02:17.274Z,97.52
2022-09-12T00:03:17.213Z,97.52
2022-09-12T00:04:17.455Z,97.52
2022-09-12T00:05:17.184Z,97.42
2022-09-12T00:06:22.366Z,97.42
2022-09-12T00:07:17.170Z,97.42
2022-09-12T00:08:17.143Z,97.42
2022-09-12T00:09:17.140Z,97.52
2022-09-12T00:10:17.201Z,97.72
2022-09-12T00:11:17.391Z,97.77
2022-09-12T00:12:17.137Z,97.77
2022-09-12T00:13:17.098Z,97.87
2022-09-12T00:14:17.070Z,97.87
2022-09-12T00:15:17.080Z,97.97
2022-09-12T00:16:17.175Z,98.07
2022-09-12T00:17:17.047Z,98.28
2022-09-12T00:18:17.343Z,98.58
2022-09-12T00:19:17.032Z,98.68
2022-09-12T00:20:17.033Z,98.83
2022-09-12T00:21:17.011Z,98.93
2022-09-12T00:22:16.989Z,99.04
2022-09-12T00:23:16.984Z,99.04
2022-09-12T00:24:16.991Z,99.13
2022-09-12T00:25:17.250Z,99.13
2022-09-12T00:26:16.948Z,99.13
2022-09-12T00:27:16.948Z,99.13
2022-09-12T00:28:16.941Z,99.24
2022-09-12T00:29:16.945Z,99.33
2022-09-12T00:30:16.937Z,99.33
2022-09-12T00:31:16.922Z,99.44
2022-09-12T00:32:17.168Z,99.44
2022-09-12T00:33:16.881Z,99.13
2022-09-12T00:34:16.857Z,98.93
2022-09-12T00:35:16.923Z,98.88
2022-09-12T00:36:16.909Z,98.88
2022-09-12T00:37:16.845Z,98.97
2022-09-12T00:38:16.822Z,99.49
2022-09-12T00:39:17.112Z,99.49
2022-09-12T00:40:16.870Z,99.58
2022-09-12T00:41:16.791Z,99.89
2022-09-12T00:42:16.828Z,99.99
2022-09-12T00:43:16.770Z,99.99
2022-09-12T00:44:16.774Z,99.99
2022-09-12T00:45:16.757Z,99.99
2022-09-12T00:46:17.002Z,99.99
2022-09-12T00:47:16.722Z,99.99
2022-09-12T00:48:16.735Z,99.99
2022-09-12T00:49:16.702Z,99.99
2022-09-12T00:50:16.682Z,99.99
2022-09-12T00:51:16.682Z,99.99
2022-09-12T00:52:16.675Z,99.99
2022-09-12T00:53:16.953Z,99.99
2022-09-12T00:54:16.697Z,99.99
2022-09-12T00:55:16.637Z,99.99
2022-09-12T00:56:16.628Z,99.99
2022-09-12T00:57:16.619Z,99.99
2022-09-12T00:58:16.597Z,99.94
2022-09-12T00:59:16.598Z,99.94
2022-09-12T01:00:16.886Z,99.84
2022-09-12T01:01:16.702Z,99.99
2022-09-12T01:02:16.661Z,99.99
2022-09-12T01:03:16.546Z,99.99
2022-09-12T01:04:16.531Z,99.99
2022-09-12T01:05:16.531Z,99.99
2022-09-12T01:06:16.594Z,99.99
2022-09-12T01:07:16.802Z,99.99
2022-09-12T01:08:16.485Z,99.99
2022-09-12T01:09:16.487Z,99.99
2022-09-12T01:10:16.459Z,99.99
2022-09-12T01:11:16.471Z,99.99
2022-09-12T01:12:16.506Z,99.99
2022-09-12T01:13:16.445Z,99.99
2022-09-12T01:14:16.741Z,99.99
2022-09-12T01:15:16.446Z,99.99
2022-09-12T01:16:16.453Z,99.99
2022-09-12T01:17:16.404Z,99.99
2022-09-12T01:18:16.436Z,99.99
2022-09-12T01:19:16.397Z,99.99
2022-09-12T01:20:16.369Z,99.99
2022-09-12T01:21:16.641Z,99.99
2022-09-12T01:22:16.344Z,99.99
2022-09-12T01:23:16.356Z,99.99
2022-09-12T01:24:16.369Z,99.99
2022-09-12T01:25:16.320Z,99.99
2022-09-12T01:26:16.294Z,99.99
2022-09-12T01:27:16.302Z,99.99
2022-09-12T01:28:16.561Z,99.99
2022-09-12T01:29:16.268Z,99.99
2022-09-12T01:30:16.286Z,99.99
2022-09-12T01:31:16.259Z,99.99
2022-09-12T01:32:16.360Z,99.99
2022-09-12T01:33:16.233Z,99.99
2022-09-12T01:34:16.206Z,99.99
2022-09-12T01:35:16.488Z,99.99
2022-09-12T01:36:16.222Z,99.99
2022-09-12T01:37:16.196Z,99.99
2022-09-12T01:38:16.194Z,99.99
2022-09-12T01:39:16.173Z,99.99
2022-09-12T01:40:16.164Z,99.99
2022-09-12T01:41:16.162Z,99.99
2022-09-12T01:42:16.462Z,99.99
2022-09-12T01:43:16.126Z,99.99
2022-09-12T01:44:16.106Z,99.99
2022-09-12T01:45:16.094Z,99.99
2022-09-12T01:46:16.072Z,99.99
2022-09-12T01:47:16.073Z,99.99
2022-09-12T01:48:16.085Z,99.99
2022-09-12T01:49:16.375Z,99.99
2022-09-12T01:50:16.037Z,99.99
2022-09-12T01:51:16.025Z,99.99
2022-09-12T01:52:16.009Z,99.99
2022-09-12T01:53:16.041Z,99.99
2022-09-12T01:54:16.023Z,99.99
2022-09-12T01:55:15.995Z,99.99
2022-09-12T01:56:16.263Z,99.99
2022-09-12T01:57:15.963Z,99.99
2022-09-12T01:58:15.950Z,99.99
2022-09-12T01:59:15.952Z,99.99
2022-09-12T02:00:15.981Z,99.99
2022-09-12T02:01:15.993Z,99.99
2022-09-12T02:02:15.934Z,99.99
2022-09-12T02:03:16.182Z,99.99
2022-09-12T02:04:15.894Z,99.99
2022-09-12T02:05:15.881Z,99.99
2022-09-12T02:06:15.884Z,99.99
2022-09-12T02:07:15.861Z,99.99
2022-09-12T02:08:15.838Z,99.99
2022-09-12T02:09:15.841Z,99.99
2022-09-12T02:10:16.116Z,99.99
2022-09-12T02:11:15.860Z,99.99
2022-09-12T02:12:15.829Z,99.99
2022-09-12T02:13:15.794Z,99.99
2022-09-12T02:14:15.788Z,99.99
2022-09-12T02:15:15.757Z,99.99
2022-09-12T02:16:15.784Z,99.99
2022-09-12T02:17:16.045Z,99.99
2022-09-12T02:18:15.780Z,99.99
2022-09-12T02:19:15.738Z,99.99
2022-09-12T02:20:31.075Z,99.99
2022-09-12T02:21:15.712Z,99.99
2022-09-12T02:22:15.697Z,99.99
2022-09-12T02:23:15.668Z,99.99
2022-09-12T02:24:15.714Z,99.99
2022-09-12T02:25:15.653Z,99.99
2022-09-12T02:26:15.659Z,99.99
2022-09-12T02:27:15.639Z,99.99
2022-09-12T02:28:15.665Z,99.99
2022-09-12T02:29:15.605Z,99.99
2022-09-12T02:30:15.650Z,99.99
2022-09-12T02:31:15.591Z,99.99
2022-09-12T02:32:15.591Z,99.99
2022-09-12T02:33:15.560Z,99.99
2022-09-12T02:34:15.572Z,99.99
2022-09-12T02:35:15.544Z,99.99
2022-09-12T02:36:15.876Z,99.99
2022-09-12T02:37:15.517Z,99.99
2022-09-12T02:38:15.529Z,99.99
2022-09-12T02:39:15.502Z,99.99
2022-09-12T02:40:15.610Z,99.99
2022-09-12T02:41:15.489Z,99.99
2022-09-12T02:42:15.506Z,99.99
2022-09-12T02:43:15.460Z,99.99
2022-09-12T02:44:15.460Z,99.99
2022-09-12T02:45:15.442Z,99.99
2022-09-12T02:46:15.440Z,99.99
2022-09-12T02:47:15.434Z,99.99
2022-09-12T02:48:15.722Z,99.99
2022-09-12T02:49:15.417Z,99.99
2022-09-12T02:50:15.393Z,99.99
2022-09-12T02:51:15.374Z,99.99
2022-09-12T02:52:15.375Z,99.99
2022-09-12T02:53:15.352Z,99.99
2022-09-12T02:54:15.399Z,99.99
2022-09-12T02:55:15.629Z,99.99
2022-09-12T02:56:15.333Z,99.99
2022-09-12T02:57:17.686Z,99.99
2022-09-12T02:58:15.320Z,99.99
2022-09-12T02:59:15.287Z,99.99
2022-09-12T03:00:15.329Z,99.99
2022-09-12T03:01:15.324Z,99.99
2022-09-12T03:02:15.620Z,99.99
2022-09-12T03:03:15.255Z,99.99
2022-09-12T03:04:15.243Z,99.99
2022-09-12T03:05:15.218Z,99.99
2022-09-12T03:06:15.598Z,99.99
2022-09-12T03:07:15.203Z,99.99
2022-09-12T03:08:15.205Z,99.99
2022-09-12T03:09:15.489Z,99.99
2022-09-12T03:10:15.185Z,99.99
2022-09-12T03:11:15.177Z,99.99
2022-09-12T03:12:15.192Z,99.99
2022-09-12T03:13:15.139Z,99.99
2022-09-12T03:14:15.138Z,99.99
2022-09-12T03:15:15.116Z,99.99
2022-09-12T03:16:15.470Z,99.99
2022-09-12T03:17:15.095Z,99.99
2022-09-12T03:18:15.119Z,99.99
2022-09-12T03:19:15.083Z,99.99
2022-09-12T03:20:15.077Z,99.99
2022-09-12T03:21:15.046Z,99.99
2022-09-12T03:22:15.064Z,99.99
2022-09-12T03:23:15.335Z,99.99
2022-09-12T03:24:15.058Z,99.99
2022-09-12T03:25:15.003Z,99.99
2022-09-12T03:26:15.008Z,99.99
2022-09-12T03:27:14.982Z,99.99
2022-09-12T03:28:14.992Z,99.99
2022-09-12T03:29:14.969Z,99.99
2022-09-12T03:30:15.292Z,99.99
2022-09-12T03:31:14.938Z,99.99
2022-09-12T03:32:14.941Z,99.99
2022-09-12T03:33:14.937Z,99.99
2022-09-12T03:34:14.922Z,99.99
2022-09-12T03:35:14.895Z,99.99
2022-09-12T03:36:14.928Z,99.99
2022-09-12T03:37:15.214Z,99.99
2022-09-12T03:38:14.871Z,99.99
2022-09-12T03:39:14.871Z,99.99
2022-09-12T03:40:14.907Z,99.99
2022-09-12T03:41:14.836Z,99.99
2022-09-12T03:42:14.869Z,99.99
2022-09-12T03:43:14.803Z,99.99
2022-09-12T03:44:15.106Z,99.99
2022-09-12T03:45:14.791Z,99.99
2022-09-12T03:46:14.788Z,99.99
2022-09-12T03:47:14.776Z,99.99
2022-09-12T03:48:14.792Z,99.99
2022-09-12T03:49:14.746Z,99.99
2022-09-12T03:50:14.740Z,99.99
2022-09-12T03:51:14.723Z,99.99
2022-09-12T03:52:14.722Z,99.99
2022-09-12T03:53:17.222Z,99.99
2022-09-12T03:54:14.740Z,99.99
2022-09-12T03:55:14.681Z,99.99
2022-09-12T03:56:14.685Z,99.99
2022-09-12T03:57:14.968Z,99.99
2022-09-12T03:58:14.663Z,99.99
2022-09-12T03:59:14.638Z,99.99
2022-09-12T04:00:19.613Z,99.99
2022-09-12T04:01:14.689Z,99.99
2022-09-12T04:02:14.639Z,99.99
2022-09-12T04:03:14.633Z,99.99
2022-09-12T04:04:14.890Z,99.99
2022-09-12T04:05:14.568Z,99.99
2022-09-12T04:06:14.618Z,99.99
2022-09-12T04:07:14.547Z,99.99
2022-09-12T04:08:14.548Z,99.99
2022-09-12T04:09:14.528Z,99.99
2022-09-12T04:10:16.176Z,99.99
2022-09-12T04:11:14.506Z,99.99
2022-09-12T04:12:14.555Z,99.99
2022-09-12T04:13:14.483Z,99.99
2022-09-12T04:14:14.480Z,99.99
2022-09-12T04:15:14.462Z,99.99
2022-09-12T04:16:14.500Z,99.99
2022-09-12T04:17:14.737Z,99.99
2022-09-12T04:18:14.475Z,99.99
2022-09-12T04:19:14.423Z,99.99
2022-09-12T04:20:14.432Z,99.99
2022-09-12T04:21:14.398Z,99.99
2022-09-12T04:22:14.395Z,99.99
2022-09-12T04:23:14.383Z,99.99
2022-09-12T04:24:14.401Z,99.99
2022-09-12T04:25:14.348Z,99.99
2022-09-12T04:26:14.350Z,99.99
2022-09-12T04:27:14.327Z,99.99
2022-09-12T04:28:14.345Z,99.99
2022-09-12T04:29:14.311Z,99.99
2022-09-12T04:30:14.629Z,99.99
2022-09-12T04:31:14.289Z,99.99
2022-09-12T04:32:14.292Z,99.99
2022-09-12T04:33:14.260Z,99.99
2022-09-12T04:34:14.262Z,99.99
2022-09-12T04:35:14.244Z,99.99
2022-09-12T04:36:14.560Z,99.99
2022-09-12T04:37:14.219Z,99.99
2022-09-12T04:38:14.222Z,99.99
2022-09-12T04:39:14.217Z,99.99
2022-09-12T04:40:14.242Z,99.99
2022-09-12T04:41:14.186Z,99.99
2022-09-12T04:42:14.491Z,99.99
2022-09-12T04:43:14.750Z,99.99
2022-09-12T04:44:14.161Z,99.99
2022-09-12T04:45:14.145Z,99.99
2022-09-12T04:46:14.174Z,99.99
2022-09-12T04:47:14.159Z,99.99
2022-09-12T04:48:14.149Z,99.99
2022-09-12T04:49:14.106Z,99.99
2022-09-12T04:50:14.104Z,99.99
2022-09-12T04:51:14.081Z,99.99
2022-09-12T04:52:14.067Z,99.99
2022-09-12T04:53:14.054Z,99.99
2022-09-12T04:54:14.422Z,99.99
2022-09-12T04:55:21.009Z,99.99
2022-09-12T04:57:29.372Z,99.99
2022-09-12T04:58:30.365Z,99.99
2022-09-12T04:59:30.407Z,99.99
2022-09-12T05:00:30.353Z,99.99
2022-09-12T05:01:30.585Z,99.99
2022-09-12T05:02:30.362Z,99.99
2022-09-12T05:03:30.603Z,99.99
2022-09-12T05:04:30.292Z,99.99
2022-09-12T05:05:30.322Z,99.99
2022-09-12T05:06:30.285Z,99.99
2022-09-12T05:07:30.247Z,99.99
2022-09-12T05:08:30.261Z,99.99
2022-09-12T05:09:30.231Z,99.99
2022-09-12T05:10:30.506Z,99.99
2022-09-12T05:11:46.890Z,99.99
2022-09-12T05:12:30.212Z,99.99
2022-09-12T05:13:30.200Z,99.99
2022-09-12T05:14:30.198Z,99.99
2022-09-12T05:15:30.169Z,99.99
2022-09-12T05:16:30.217Z,99.99
2022-09-12T05:17:30.476Z,99.99
2022-09-12T05:18:30.148Z,99.99
2022-09-12T05:19:30.137Z,99.99
2022-09-12T05:20:30.152Z,99.99
2022-09-12T05:21:30.115Z,99.99
2022-09-12T05:22:30.103Z,99.99
2022-09-12T05:23:30.164Z,99.99
2022-09-12T05:24:30.400Z,99.99
2022-09-12T05:25:30.077Z,99.99
2022-09-12T05:26:30.058Z,99.99
2022-09-12T05:27:30.047Z,99.99
2022-09-12T05:28:30.052Z,99.99
2022-09-12T05:29:30.057Z,99.99
2022-09-12T05:30:30.075Z,99.99
2022-09-12T05:31:30.294Z,99.99
2022-09-12T05:32:30.005Z,99.99
2022-09-12T05:33:30.030Z,99.99
2022-09-12T05:34:29.975Z,99.99
2022-09-12T05:35:30.001Z,99.99
2022-09-12T05:36:29.972Z,99.99
2022-09-12T05:37:29.961Z,99.99
2022-09-12T05:38:30.218Z,99.99
2022-09-12T05:39:29.929Z,99.99
2022-09-12T05:40:29.916Z,99.99
2022-09-12T05:41:29.944Z,99.99
2022-09-12T05:42:29.898Z,99.99
2022-09-12T05:43:29.947Z,99.99
2022-09-12T05:44:29.878Z,99.99
2022-09-12T05:45:30.204Z,99.99
2022-09-12T05:46:29.871Z,99.99
2022-09-12T05:47:29.869Z,99.99
2022-09-12T05:48:29.825Z,99.99
2022-09-12T05:49:29.821Z,99.99
2022-09-12T05:50:29.809Z,99.99
2022-09-12T05:51:29.812Z,99.99
2022-09-12T05:52:29.793Z,99.99
2022-09-12T05:53:29.829Z,99.99
2022-09-12T05:54:31.638Z,99.99
2022-09-12T05:55:29.771Z,99.99
2022-09-12T05:56:29.748Z,99.99
2022-09-12T05:57:30.027Z,99.99
2022-09-12T05:58:29.716Z,99.99
2022-09-12T05:59:29.757Z,99.99
2022-09-12T06:00:33.397Z,99.99
2022-09-12T06:01:29.758Z,99.99
2022-09-12T06:02:29.720Z,99.99
2022-09-12T06:03:29.694Z,99.99
2022-09-12T06:04:29.658Z,99.92
2022-09-12T06:05:29.717Z,99.82
2022-09-12T06:06:29.646Z,99.47
2022-09-12T06:07:29.636Z,99.27
2022-09-12T06:08:29.614Z,99.06
2022-09-12T06:09:29.639Z,99.06
2022-09-12T06:10:29.627Z,98.61
2022-09-12T06:11:29.629Z,98.41
2022-09-12T06:12:29.572Z,97.69
2022-09-12T06:13:29.573Z,97.39
2022-09-12T06:14:29.560Z,97.39
2022-09-12T06:15:29.844Z,97.44
2022-09-12T06:16:29.580Z,97.14
2022-09-12T06:17:29.572Z,96.23
2022-09-12T06:18:29.508Z,96.33
2022-09-12T06:19:29.504Z,96.43
2022-09-12T06:20:29.494Z,96.53
2022-09-12T06:21:29.496Z,96.89
2022-09-12T06:22:29.800Z,96.89
2022-09-12T06:23:29.506Z,96.28
2022-09-12T06:24:29.464Z,95.37
2022-09-12T06:25:29.450Z,95.02
2022-09-12T06:26:29.426Z,94.61
2022-09-12T06:27:29.432Z,94.41
2022-09-12T06:28:29.416Z,94.00
2022-09-12T06:29:29.725Z,93.55
2022-09-12T06:30:29.437Z,93.05
2022-09-12T06:31:29.392Z,92.54
2022-09-12T06:32:29.374Z,92.44
2022-09-12T06:33:29.370Z,92.13
2022-09-12T06:34:29.371Z,91.63
2022-09-12T06:35:29.396Z,92.54
2022-09-12T06:36:29.600Z,92.54
2022-09-12T06:37:29.334Z,91.52
2022-09-12T06:38:29.304Z,91.78
2022-09-12T06:39:29.305Z,91.58
2022-09-12T06:40:29.295Z,91.28
2022-09-12T06:41:29.315Z,91.03
2022-09-12T06:42:29.287Z,90.32
2022-09-12T06:43:29.550Z,90.02
2022-09-12T06:44:29.254Z,89.26
2022-09-12T06:45:29.255Z,89.67
2022-09-12T06:46:29.285Z,88.66
2022-09-12T06:47:29.265Z,88.72
2022-09-12T06:48:29.204Z,88.21
2022-09-12T06:49:29.210Z,88.01
2022-09-12T06:50:29.185Z,87.77
2022-09-12T06:51:29.190Z,86.76
2022-09-12T06:52:29.186Z,85.94
2022-09-12T06:53:29.200Z,85.84
2022-09-12T06:54:29.145Z,85.38
2022-09-12T06:55:29.141Z,85.99
2022-09-12T06:56:29.405Z,86.02
2022-09-12T06:57:29.134Z,86.94
2022-09-12T06:58:29.126Z,86.63
2022-09-12T06:59:29.137Z,86.73
2022-09-12T07:00:29.092Z,86.63
2022-09-12T07:01:29.160Z,86.63
2022-09-12T07:02:29.095Z,86.79
2022-09-12T07:03:29.357Z,86.59
2022-09-12T07:04:29.066Z,86.79
2022-09-12T07:05:29.117Z,86.49
2022-09-12T07:06:29.013Z,86.15
2022-09-12T07:07:29.022Z,86.15
2022-09-12T07:08:29.024Z,86.10
2022-09-12T07:09:29.001Z,85.50
2022-09-12T07:10:28.991Z,84.14
2022-09-12T07:11:29.017Z,84.14
2022-09-12T07:12:28.949Z,83.74
2022-09-12T07:13:28.963Z,83.94
2022-09-12T07:14:28.950Z,84.00
2022-09-12T07:15:28.928Z,83.60
2022-09-12T07:16:30.096Z,82.79
2022-09-12T07:17:28.976Z,81.74
2022-09-12T07:18:29.135Z,82.35
2022-09-12T07:19:28.893Z,81.74
2022-09-12T07:20:28.883Z,82.14
2022-09-12T07:21:28.865Z,82.04
2022-09-12T07:22:28.879Z,81.74
2022-09-12T07:23:28.886Z,81.20
2022-09-12T07:24:28.832Z,81.30
2022-09-12T07:25:28.841Z,81.10
2022-09-12T07:26:28.804Z,80.90
2022-09-12T07:27:28.822Z,81.10
2022-09-12T07:28:29.070Z,80.65
2022-09-12T07:29:37.638Z,81.16
2022-09-12T07:30:28.834Z,80.65
2022-09-12T07:31:28.777Z,80.01
2022-09-12T07:32:28.744Z,80.01
2022-09-12T07:33:28.765Z,80.21
2022-09-12T07:34:28.743Z,79.81
2022-09-12T07:35:28.781Z,79.81
2022-09-12T07:36:28.704Z,80.31
2022-09-12T07:37:28.710Z,80.11
2022-09-12T07:38:28.688Z,80.18
2022-09-12T07:39:28.680Z,79.87
2022-09-12T07:40:28.679Z,79.27
2022-09-12T07:41:28.711Z,78.66
2022-09-12T07:42:28.689Z,79.36
2022-09-12T07:43:28.652Z,79.36
2022-09-12T07:44:28.624Z,79.47
2022-09-12T07:45:28.609Z,79.57
2022-09-12T07:46:28.903Z,79.47
2022-09-12T07:47:28.632Z,79.97
2022-09-12T07:48:28.641Z,79.93
2022-09-12T07:49:28.584Z,79.23
2022-09-12T07:50:28.549Z,79.43
2022-09-12T07:51:28.566Z,78.32
2022-09-12T07:52:28.641Z,77.86
2022-09-12T07:53:28.572Z,78.36
2022-09-12T07:54:28.563Z,79.50
2022-09-12T07:55:28.516Z,80.45
2022-09-12T07:56:30.654Z,80.41
2022-09-12T07:57:28.500Z,80.11
2022-09-12T07:58:28.494Z,80.11
2022-09-12T07:59:50.935Z,80.41
2022-09-12T08:00:28.478Z,78.90
2022-09-12T08:01:28.507Z,79.74
2022-09-12T08:02:28.513Z,80.15
2022-09-12T08:03:28.448Z,80.90
2022-09-12T08:04:28.425Z,80.99
2022-09-12T08:05:28.730Z,81.70
2022-09-12T08:06:28.390Z,81.60
2022-09-12T08:07:28.389Z,81.46
2022-09-12T08:08:28.369Z,81.26
2022-09-12T08:09:28.377Z,81.22
2022-09-12T08:10:28.355Z,80.92
2022-09-12T08:11:28.393Z,81.02
2022-09-12T08:12:28.338Z,80.27
2022-09-12T08:13:28.327Z,80.27
2022-09-12T08:14:28.321Z,79.36
2022-09-12T08:15:28.356Z,79.27
2022-09-12T08:16:28.320Z,79.27
2022-09-12T08:17:28.628Z,79.27
2022-09-12T08:18:28.287Z,78.76
2022-09-12T08:19:28.273Z,79.27
2022-09-12T08:20:28.594Z,79.77
2022-09-12T08:21:28.259Z,80.18
2022-09-12T08:22:28.247Z,80.47
2022-09-12T08:23:28.274Z,79.93
2022-09-12T08:24:28.477Z,79.53
2022-09-12T08:25:28.213Z,80.04
2022-09-12T08:26:28.192Z,79.53
2022-09-12T08:27:28.184Z,79.23
2022-09-12T08:28:28.154Z,78.39
2022-09-12T08:29:28.206Z,78.19
2022-09-12T08:30:28.158Z,78.08
2022-09-12T08:31:28.429Z,78.08
2022-09-12T08:32:28.126Z,78.25
2022-09-12T08:33:28.115Z,77.75
2022-09-12T08:34:28.108Z,77.55
2022-09-12T08:35:28.136Z,76.70
2022-09-12T08:36:28.090Z,76.60
2022-09-12T08:37:28.080Z,76.70
2022-09-12T08:38:28.354Z,76.26
2022-09-12T08:39:28.048Z,75.76
2022-09-12T08:40:28.020Z,75.56
2022-09-12T08:41:28.068Z,75.96
2022-09-12T08:42:28.053Z,76.10
2022-09-12T08:43:28.011Z,76.70
2022-09-12T08:44:28.026Z,76.80
2022-09-12T08:45:27.988Z,76.80
2022-09-12T08:46:28.022Z,76.60
2022-09-12T08:47:28.045Z,76.26
2022-09-12T08:48:27.955Z,76.40
2022-09-12T08:49:27.959Z,76.30
2022-09-12T08:50:27.990Z,76.80
2022-09-12T08:51:28.225Z,77.20
2022-09-12T08:52:27.935Z,76.30
2022-09-12T08:53:27.957Z,77.11
2022-09-12T08:54:27.881Z,76.16
2022-09-12T08:55:27.873Z,76.12
2022-09-12T08:56:31.570Z,75.02
2022-09-12T08:57:27.883Z,74.28
2022-09-12T08:58:28.133Z,73.88
2022-09-12T08:59:27.917Z,74.08
2022-09-12T09:00:27.830Z,74.18
2022-09-12T09:01:27.915Z,73.94
2022-09-12T09:02:27.875Z,72.53
2022-09-12T09:03:27.799Z,72.94
2022-09-12T09:04:28.924Z,73.14
2022-09-12T09:05:28.112Z,73.44
2022-09-12T09:06:27.772Z,73.34
2022-09-12T09:07:27.757Z,72.90
2022-09-12T09:08:27.760Z,72.71
2022-09-12T09:09:28.714Z,72.67
2022-09-12T09:10:27.716Z,72.13
2022-09-12T09:11:27.764Z,70.89
2022-09-12T09:12:27.978Z,70.19
2022-09-12T09:13:27.717Z,69.99
2022-09-12T09:14:27.682Z,70.56
2022-09-12T09:15:27.699Z,69.82
2022-09-12T09:16:27.656Z,69.32
2022-09-12T09:17:27.722Z,68.59
2022-09-12T09:18:27.653Z,67.55
2022-09-12T09:19:27.920Z,67.46
2022-09-12T09:20:27.640Z,67.32
2022-09-12T09:21:27.630Z,66.82
2022-09-12T09:22:27.586Z,66.29
2022-09-12T09:23:27.642Z,66.19
2022-09-12T09:24:27.573Z,65.99
2022-09-12T09:25:27.581Z,65.19
2022-09-12T09:26:27.571Z,65.59
2022-09-12T09:27:40.384Z,66.49
2022-09-12T09:28:27.533Z,66.29
2022-09-12T09:29:27.562Z,66.79
2022-09-12T09:30:27.515Z,65.99
2022-09-12T09:31:27.553Z,65.89
2022-09-12T09:32:27.775Z,64.99
2022-09-12T09:33:27.485Z,64.79
2022-09-12T09:34:27.474Z,65.49
2022-09-12T09:35:27.535Z,65.06
2022-09-12T09:36:27.481Z,64.76
2022-09-12T09:37:27.464Z,64.83
2022-09-12T09:38:27.437Z,64.93
2022-09-12T09:39:27.722Z,64.30
2022-09-12T09:40:27.422Z,63.20
2022-09-12T09:41:27.470Z,63.27
2022-09-12T09:42:27.407Z,62.84
2022-09-12T09:43:27.416Z,62.41
2022-09-12T09:44:27.357Z,61.39
2022-09-12T09:45:27.383Z,60.46
2022-09-12T09:46:27.720Z,60.26
2022-09-12T09:47:27.396Z,60.26
2022-09-12T09:48:27.329Z,60.36
2022-09-12T09:49:27.305Z,60.53
2022-09-12T09:50:27.313Z,58.71
2022-09-12T09:51:27.288Z,58.01
2022-09-12T09:52:27.304Z,58.09
2022-09-12T09:53:27.604Z,57.76
2022-09-12T09:54:27.279Z,56.94
2022-09-12T09:55:27.276Z,56.98
2022-09-12T09:56:27.236Z,55.57
2022-09-12T09:57:27.221Z,54.30
2022-09-12T09:58:27.226Z,54.90
2022-09-12T09:59:27.241Z,55.57
2022-09-12T10:00:27.508Z,54.85
2022-09-12T10:01:27.226Z,55.51
2022-09-12T10:02:27.233Z,54.22
2022-09-12T10:03:27.173Z,52.76
2022-09-12T10:04:27.175Z,53.26
2022-09-12T10:05:27.176Z,53.86
2022-09-12T10:06:27.183Z,56.55
2022-09-12T10:07:27.409Z,57.67
2022-09-12T10:08:27.119Z,57.77
2022-09-12T10:09:27.111Z,57.80
2022-09-12T10:10:27.101Z,59.75
2022-09-12T10:11:27.259Z,60.45
2022-09-12T10:12:27.089Z,60.25
2022-09-12T10:13:27.087Z,60.15
2022-09-12T10:14:27.357Z,60.65
2022-09-12T10:15:27.062Z,60.12
2022-09-12T10:16:27.103Z,60.79
2022-09-12T10:17:29.505Z,59.27
2022-09-12T10:18:27.031Z,59.23
2022-09-12T10:19:26.998Z,58.14
2022-09-12T10:20:27.021Z,57.37
2022-09-12T10:21:27.268Z,58.10
2022-09-12T10:22:26.973Z,58.50
2022-09-12T10:23:27.007Z,59.02
2022-09-12T10:24:26.970Z,59.02
2022-09-12T10:25:26.965Z,58.67
2022-09-12T10:26:26.969Z,57.32
2022-09-12T10:27:26.922Z,55.97
2022-09-12T10:28:27.248Z,55.12
2022-09-12T10:29:26.945Z,53.88
2022-09-12T10:30:26.945Z,53.90
2022-09-12T10:31:26.876Z,51.03
2022-09-12T10:32:30.615Z,52.47
2022-09-12T10:33:26.854Z,52.64
2022-09-12T10:34:26.880Z,54.06
2022-09-12T10:35:26.907Z,55.40
2022-09-12T10:36:26.852Z,56.42
2022-09-12T10:37:26.842Z,57.12
2022-09-12T10:38:26.837Z,56.79
2022-09-12T10:39:26.802Z,56.17
2022-09-12T10:40:26.821Z,55.94
2022-09-12T10:41:26.830Z,54.00
2022-09-12T10:42:26.777Z,53.28
2022-09-12T10:43:26.819Z,53.78
2022-09-12T10:44:26.759Z,53.19
2022-09-12T10:45:26.738Z,52.39
2022-09-12T10:46:26.809Z,51.87
2022-09-12T10:47:26.790Z,52.39
2022-09-12T10:48:26.738Z,51.70
2022-09-12T10:49:26.702Z,51.77
2022-09-12T10:50:26.773Z,51.18
2022-09-12T10:51:26.673Z,51.07
2022-09-12T10:52:26.715Z,51.20
2022-09-12T10:53:31.002Z,51.79
2022-09-12T10:54:26.651Z,51.97
2022-09-12T10:55:26.635Z,51.75
2022-09-12T10:56:26.651Z,51.75
2022-09-12T10:57:26.619Z,51.67
2022-09-12T10:58:26.651Z,52.07
2022-09-12T10:59:26.617Z,51.05
2022-09-12T11:00:26.615Z,51.05
2022-09-12T11:01:26.669Z,51.42
2022-09-12T11:02:26.635Z,51.35
2022-09-12T11:03:26.555Z,51.75
2022-09-12T11:04:26.554Z,51.47
2022-09-12T11:05:26.843Z,51.82
2022-09-12T11:06:26.532Z,52.84
2022-09-12T11:07:26.507Z,54.16
2022-09-12T11:08:26.545Z,53.26
2022-09-12T11:09:26.510Z,53.36
2022-09-12T11:10:26.490Z,53.53
2022-09-12T11:11:26.530Z,52.49
2022-09-12T11:12:26.752Z,50.78
2022-09-12T11:13:26.462Z,50.88
2022-09-12T11:14:26.456Z,50.88
2022-09-12T11:15:26.436Z,51.47
2022-09-12T11:16:26.430Z,51.77
2022-09-12T11:17:26.438Z,51.37
2022-09-12T11:18:26.403Z,51.70
2022-09-12T11:19:26.703Z,52.51
2022-09-12T11:20:26.378Z,52.56
2022-09-12T11:21:26.364Z,50.73
2022-09-12T11:22:31.099Z,50.43
2022-09-12T11:23:26.375Z,51.50
2022-09-12T11:24:26.368Z,52.61
2022-09-12T11:25:26.337Z,52.19
2022-09-12T11:26:26.320Z,51.50
2022-09-12T11:27:26.323Z,50.95
2022-09-12T11:28:26.316Z,51.05
2022-09-12T11:29:26.319Z,49.94
2022-09-12T11:30:26.276Z,49.81
2022-09-12T11:31:26.275Z,50.04
2022-09-12T11:32:26.553Z,49.84
2022-09-12T11:33:26.256Z,48.63
2022-09-12T11:34:26.249Z,48.58
2022-09-12T11:35:26.294Z,47.77
2022-09-12T11:36:26.227Z,48.08
2022-09-12T11:37:26.231Z,47.59
2022-09-12T11:38:26.215Z,48.60
2022-09-12T11:39:26.462Z,48.58
2022-09-12T11:40:26.216Z,47.59
2022-09-12T11:41:26.227Z,48.26
2022-09-12T11:42:26.185Z,47.64
2022-09-12T11:43:26.167Z,45.07
2022-09-12T11:44:26.153Z,44.64
2022-09-12T11:45:26.120Z,44.04
2022-09-12T11:46:26.463Z,45.03
2022-09-12T11:47:26.152Z,45.52
2022-09-12T11:48:26.126Z,45.13
2022-09-12T11:49:26.077Z,45.32
2022-09-12T11:50:26.092Z,44.61
2022-09-12T11:51:26.070Z,44.59
2022-09-12T11:52:26.050Z,43.78
2022-09-12T11:53:26.363Z,43.74
2022-09-12T11:54:26.034Z,42.54
2022-09-12T11:55:26.032Z,41.86
2022-09-12T11:56:26.036Z,42.52
2022-09-12T11:57:26.025Z,45.17
2022-09-12T11:58:26.014Z,46.18
2022-09-12T11:59:26.012Z,46.58
2022-09-12T12:00:26.280Z,45.86
2022-09-12T12:01:25.972Z,45.92
2022-09-12T12:02:26.006Z,44.07
2022-09-12T12:03:25.961Z,43.01
2022-09-12T12:04:25.971Z,43.23
2022-09-12T12:05:25.973Z,45.21
2022-09-12T12:06:25.921Z,48.38
2022-09-12T12:07:26.185Z,49.61
2022-09-12T12:08:25.931Z,49.49
2022-09-12T12:09:25.871Z,49.17
2022-09-12T12:10:25.869Z,48.43
2022-09-12T12:11:25.900Z,46.38
2022-09-12T12:12:25.857Z,45.49
2022-09-12T12:13:25.879Z,45.37
2022-09-12T12:14:25.857Z,44.70
2022-09-12T12:15:25.807Z,44.70
2022-09-12T12:16:25.801Z,43.96
2022-09-12T12:17:25.864Z,43.03
2022-09-12T12:18:25.819Z,41.91
2022-09-12T12:19:25.759Z,41.41
2022-09-12T12:20:26.091Z,41.81
2022-09-12T12:21:25.791Z,41.71
2022-09-12T12:22:25.767Z,42.61
2022-09-12T12:23:25.766Z,42.52
2022-09-12T12:24:25.738Z,42.50
2022-09-12T12:25:29.658Z,42.58
2022-09-12T12:26:26.029Z,41.99
2022-09-12T12:27:25.702Z,40.98
2022-09-12T12:28:25.705Z,41.53
2022-09-12T12:29:25.720Z,40.70
2022-09-12T12:30:25.724Z,39.11
2022-09-12T12:31:25.681Z,39.11
2022-09-12T12:32:25.665Z,40.09
2022-09-12T12:33:25.696Z,37.65
2022-09-12T12:34:25.682Z,41.31
2022-09-12T12:35:25.729Z,41.38
2022-09-12T12:36:25.645Z,42.80
2022-09-12T12:37:25.607Z,43.88
2022-09-12T12:38:25.878Z,44.31
2022-09-12T12:39:25.601Z,44.42
2022-09-12T12:40:25.641Z,45.34
2022-09-12T12:41:25.609Z,44.10
2022-09-12T12:42:25.554Z,45.09
2022-09-12T12:43:25.558Z,44.97
2022-09-12T12:44:25.531Z,44.90
2022-09-12T12:45:25.786Z,45.83
2022-09-12T12:46:25.560Z,47.04
2022-09-12T12:47:26.303Z,47.41
2022-09-12T12:48:25.505Z,48.32
2022-09-12T12:49:25.479Z,48.32
2022-09-12T12:50:25.460Z,48.62
2022-09-12T12:51:25.476Z,48.90
2022-09-12T12:52:25.752Z,48.57
2022-09-12T12:53:25.471Z,47.83